createdAt,value
2023-03-21T00:02:05.070Z,100086.77
2023-03-21T00:04:50.956Z,100084.92
2023-03-21T00:07:24.476Z,100085.63
2023-03-21T00:10:04.965Z,100083.90
2023-03-21T00:12:45.536Z,100088.65
2023-03-21T00:15:20.569Z,100088.58
2023-03-21T00:17:54.424Z,100087.41
2023-03-21T00:20:35.339Z,100082.84
2023-03-21T00:23:07.491Z,100081.57
2023-03-21T00:25:41.221Z,100082.05
2023-03-21T00:28:11.166Z,100079.73
2023-03-21T00:30:44.023Z,100081.39
2023-03-21T00:33:22.642Z,100078.39
2023-03-21T00:36:05.132Z,100081.17
2023-03-21T00:38:41.098Z,100079.52
2023-03-21T00:41:35.129Z,100079.55
2023-03-21T00:44:26.829Z,100082.08
2023-03-21T00:47:07.005Z,100077.50
2023-03-21T00:49:44.977Z,100076.66
2023-03-21T00:52:20.391Z,100074.01
2023-03-21T00:54:56.409Z,100073.39
2023-03-21T00:57:37.909Z,100062.92
2023-03-21T01:00:12.590Z,100066.23
2023-03-21T01:03:14.247Z,100066.98
2023-03-21T01:06:04.861Z,100070.20
2023-03-21T01:08:51.771Z,100066.18
2023-03-21T01:11:24.826Z,100061.49
2023-03-21T01:14:14.670Z,100059.60
2023-03-21T01:16:51.395Z,100058.05
2023-03-21T01:19:35.237Z,100048.95
2023-03-21T01:22:20.293Z,100054.70
2023-03-21T01:24:58.634Z,100053.05
2023-03-21T01:27:35.342Z,100053.17
2023-03-21T01:30:11.281Z,100057.11
2023-03-21T01:32:47.618Z,100060.58
2023-03-21T01:35:16.921Z,100056.50
2023-03-21T01:37:49.440Z,100051.81
2023-03-21T01:40:23.087Z,100056.69
2023-03-21T01:42:54.788Z,100056.30
2023-03-21T01:46:03.314Z,100061.74
2023-03-21T01:49:16.625Z,100061.79
2023-03-21T01:51:56.663Z,100061.02
2023-03-21T01:54:31.788Z,100059.71
2023-03-21T01:57:05.669Z,100053.77
2023-03-21T01:59:43.857Z,100055.84
2023-03-21T02:02:58.303Z,100051.91
2023-03-21T02:06:02.600Z,100053.92
2023-03-21T02:09:04.923Z,100051.39
2023-03-21T02:11:34.865Z,100047.08
2023-03-21T02:14:07.020Z,100044.71
2023-03-21T02:16:58.061Z,100048.34
2023-03-21T02:19:53.308Z,100048.50
2023-03-21T02:23:00.648Z,100042.86
2023-03-21T02:26:10.195Z,100044.08
2023-03-21T02:28:56.596Z,100048.23
2023-03-21T02:32:16.539Z,100046.84
2023-03-21T02:35:52.352Z,100041.48
2023-03-21T02:38:28.512Z,100046.52
2023-03-21T02:41:19.110Z,100044.23
2023-03-21T02:43:59.049Z,100043.16
2023-03-21T02:46:45.436Z,100042.65
2023-03-21T02:49:43.247Z,100037.45
2023-03-21T02:52:32.113Z,100037.05
2023-03-21T02:55:32.960Z,100037.03
2023-03-21T02:58:13.379Z,100040.12
2023-03-21T03:00:57.927Z,100039.02
2023-03-21T03:03:37.171Z,100038.70
2023-03-21T03:06:15.083Z,100036.70
2023-03-21T03:09:02.648Z,100035.52
2023-03-21T03:11:39.936Z,100036.38
2023-03-21T03:14:44.353Z,100037.94
2023-03-21T03:17:28.438Z,100031.16
2023-03-21T03:20:32.704Z,100033.83
2023-03-21T03:23:26.252Z,100034.39
2023-03-21T03:26:08.914Z,100032.95
2023-03-21T03:28:59.099Z,100029.51
2023-03-21T03:31:36.886Z,100028.20
2023-03-21T03:34:11.026Z,100025.30
2023-03-21T03:36:43.901Z,100033.08
2023-03-21T03:39:16.777Z,100033.80
2023-03-21T03:42:27.710Z,100031.65
2023-03-21T03:45:06.738Z,100030.14
2023-03-21T03:47:54.164Z,100030.52
2023-03-21T03:50:33.581Z,100030.49
2023-03-21T03:53:18.589Z,100028.61
2023-03-21T03:55:56.639Z,100027.14
2023-03-21T03:58:33.572Z,100024.96
2023-03-21T04:01:08.117Z,100022.77
2023-03-21T04:03:49.763Z,100025.70
2023-03-21T04:06:22.335Z,100023.83
2023-03-21T04:08:53.487Z,100026.70
2023-03-21T04:11:26.284Z,100031.38
2023-03-21T04:13:56.660Z,100031.70
2023-03-21T04:16:28.541Z,100033.52
2023-03-21T04:18:59.027Z,100040.42
2023-03-21T04:21:29.485Z,100038.25
2023-03-21T04:24:09.180Z,100034.38
2023-03-21T04:26:41.952Z,100026.60
2023-03-21T04:29:31.232Z,100034.14
2023-03-21T04:32:25.642Z,100032.70
2023-03-21T04:35:09.129Z,100033.70
2023-03-21T04:37:47.908Z,100035.61
2023-03-21T04:40:20.797Z,100033.26
2023-03-21T04:42:55.349Z,100032.64
2023-03-21T04:45:24.560Z,100034.98
2023-03-21T04:48:02.232Z,100037.52
2023-03-21T04:50:38.075Z,100034.31
2023-03-21T04:53:10.661Z,100039.59
2023-03-21T04:55:46.794Z,100038.13
2023-03-21T04:58:22.133Z,100041.30
2023-03-21T05:00:53.286Z,100043.15
2023-03-21T05:03:34.636Z,100042.40
2023-03-21T05:06:19.387Z,100044.25
2023-03-21T05:09:07.957Z,100046.61
2023-03-21T05:12:03.483Z,100045.19
2023-03-21T05:14:36.097Z,100042.73
2023-03-21T05:17:15.553Z,100044.23
2023-03-21T05:19:50.655Z,100048.73
2023-03-21T05:22:21.402Z,100053.48
2023-03-21T05:24:59.003Z,100053.63
2023-03-21T05:27:45.486Z,100058.26
2023-03-21T05:30:21.008Z,100056.34
2023-03-21T05:33:43.200Z,100055.81
2023-03-21T05:36:15.990Z,100047.63
2023-03-21T05:38:48.940Z,100049.30
2023-03-21T05:41:21.033Z,100056.45
2023-03-21T05:43:50.989Z,100058.11
2023-03-21T05:46:22.170Z,100057.48
2023-03-21T05:48:52.511Z,100060.19
2023-03-21T05:51:25.536Z,100059.00
2023-03-21T05:54:20.262Z,100058.59
2023-03-21T05:56:49.297Z,100058.56
2023-03-21T05:59:51.880Z,100054.77
2023-03-21T06:02:24.688Z,100054.36
2023-03-21T06:04:54.811Z,100050.48
2023-03-21T06:07:28.724Z,100052.71
2023-03-21T06:09:57.601Z,100051.73
2023-03-21T06:12:30.584Z,100055.43
2023-03-21T06:15:08.712Z,100053.09
2023-03-21T06:17:54.483Z,100049.45
2023-03-21T06:20:28.204Z,100041.48
2023-03-21T06:23:08.660Z,100042.58
2023-03-21T06:25:39.358Z,100040.44
2023-03-21T06:28:35.079Z,100038.94
2023-03-21T06:31:10.585Z,100041.30
2023-03-21T06:34:10.658Z,100038.12
2023-03-21T06:36:48.187Z,100035.27
2023-03-21T06:39:18.894Z,100034.98
2023-03-21T06:41:47.948Z,100032.06
2023-03-21T06:44:26.410Z,100035.01
2023-03-21T06:47:06.278Z,100035.60
2023-03-21T06:49:38.273Z,100040.16
2023-03-21T06:52:11.830Z,100034.30
2023-03-21T06:54:43.644Z,100028.38
2023-03-21T06:57:22.359Z,100026.84
2023-03-21T06:59:52.734Z,100031.58
2023-03-21T07:02:27.578Z,100026.63
2023-03-21T07:05:09.654Z,100027.45
2023-03-21T07:07:39.357Z,100027.91
2023-03-21T07:10:14.411Z,100026.59
2023-03-21T07:13:04.883Z,100026.08
2023-03-21T07:15:39.292Z,100025.06
2023-03-21T07:18:10.756Z,100022.92
2023-03-21T07:20:47.960Z,100024.81
2023-03-21T07:24:14.588Z,100022.65
2023-03-21T07:26:56.492Z,100020.72
2023-03-21T07:29:49.992Z,100021.95
2023-03-21T07:32:18.476Z,100022.86
2023-03-21T07:34:51.055Z,100023.00
2023-03-21T07:37:23.527Z,100023.58
2023-03-21T07:39:58.726Z,100021.86
2023-03-21T07:42:29.821Z,100019.77
2023-03-21T07:45:04.838Z,100019.02
2023-03-21T07:47:40.490Z,100022.79
2023-03-21T07:50:11.741Z,100021.44
2023-03-21T07:52:42.034Z,100026.41
2023-03-21T07:55:12.299Z,100031.14
2023-03-21T07:57:46.863Z,100034.19
2023-03-21T08:00:23.808Z,100030.63
2023-03-21T08:02:58.752Z,100030.11
2023-03-21T08:05:44.451Z,100024.39
2023-03-21T08:08:14.281Z,100027.76
2023-03-21T08:10:45.206Z,100025.04
2023-03-21T08:13:15.745Z,100024.65
2023-03-21T08:15:45.859Z,100026.30
2023-03-21T08:18:15.633Z,100021.59
2023-03-21T08:20:44.953Z,100019.48
2023-03-21T08:23:21.177Z,100018.30
2023-03-21T08:25:54.603Z,100013.81
2023-03-21T08:28:26.679Z,100013.84
2023-03-21T08:31:09.216Z,100014.14
2023-03-21T08:33:40.939Z,100013.59
2023-03-21T08:36:12.095Z,100015.31
2023-03-21T08:38:41.783Z,100012.41
2023-03-21T08:41:13.109Z,100006.90
2023-03-21T08:43:57.693Z,100001.80
2023-03-21T08:46:34.040Z,100001.75
2023-03-21T08:49:04.199Z,100001.08
2023-03-21T08:51:35.506Z,100002.89
2023-03-21T08:54:06.941Z,99999.19
2023-03-21T08:56:38.228Z,99999.73
2023-03-21T08:59:06.540Z,100000.13
2023-03-21T09:01:40.877Z,99994.59
2023-03-21T09:04:13.512Z,99994.36
2023-03-21T09:06:45.275Z,99993.38
2023-03-21T09:09:13.363Z,99990.05
2023-03-21T09:11:45.815Z,99983.13
2023-03-21T09:14:16.152Z,99981.05
2023-03-21T09:16:44.990Z,99981.01
2023-03-21T09:19:16.893Z,99982.55
2023-03-21T09:21:47.010Z,99984.27
2023-03-21T09:24:17.628Z,99975.38
2023-03-21T09:26:53.214Z,99972.77
2023-03-21T09:29:21.362Z,99972.35
2023-03-21T09:32:18.606Z,99973.07
2023-03-21T09:34:48.656Z,99968.81
2023-03-21T09:37:17.243Z,99973.48
2023-03-21T09:39:47.615Z,99967.42
2023-03-21T09:42:56.565Z,99968.23
2023-03-21T09:45:49.423Z,99970.96
2023-03-21T09:49:18.513Z,99967.40
2023-03-21T09:51:50.092Z,99970.04
2023-03-21T09:57:41.362Z,99969.39
2023-03-21T10:00:46.722Z,99971.02
2023-03-21T10:03:29.217Z,99971.64
2023-03-21T10:05:58.348Z,99968.95
2023-03-21T10:08:30.168Z,99968.81
2023-03-21T10:11:04.602Z,99967.39
2023-03-21T10:13:37.498Z,99960.08
2023-03-21T10:16:19.580Z,99960.89
2023-03-21T10:18:47.623Z,99958.11
2023-03-21T10:21:47.477Z,99961.79
2023-03-21T10:24:13.363Z,99963.23
2023-03-21T10:26:40.996Z,99959.48
2023-03-21T10:29:16.498Z,99957.08
2023-03-21T10:31:45.421Z,99954.81
2023-03-21T10:34:27.061Z,99947.09
2023-03-21T10:36:59.463Z,99946.67
2023-03-21T10:39:38.833Z,99945.08
2023-03-21T10:42:28.938Z,99944.65
2023-03-21T10:44:57.393Z,99941.16
2023-03-21T10:47:28.283Z,99942.70
2023-03-21T10:50:11.878Z,99939.64
2023-03-21T10:52:53.271Z,99938.33
2023-03-21T10:55:32.786Z,99935.42
2023-03-21T10:58:10.199Z,99933.05
2023-03-21T11:00:41.639Z,99934.48
2023-03-21T11:03:30.781Z,99930.91
2023-03-21T11:06:05.682Z,99935.43
2023-03-21T11:08:38.901Z,99936.63
2023-03-21T11:11:15.274Z,99933.48
2023-03-21T11:13:44.899Z,99932.95
2023-03-21T11:16:26.660Z,99932.66
2023-03-21T11:18:56.753Z,99931.44
2023-03-21T11:21:29.689Z,99931.31
2023-03-21T11:23:58.798Z,99928.58
2023-03-21T11:26:37.949Z,99931.55
2023-03-21T11:30:10.346Z,99926.81
2023-03-21T11:32:38.221Z,99923.59
2023-03-21T11:35:22.071Z,99921.66
2023-03-21T11:38:01.591Z,99922.65
2023-03-21T11:40:33.476Z,99919.62
2023-03-21T11:43:19.876Z,99917.36
2023-03-21T11:46:05.759Z,99910.16
2023-03-21T11:48:41.702Z,99911.20
2023-03-21T11:51:11.667Z,99915.31
2023-03-21T11:54:18.749Z,99912.87
2023-03-21T11:56:53.831Z,99907.18
2023-03-21T11:59:37.290Z,99906.02
2023-03-21T12:02:36.004Z,99905.77
2023-03-21T12:05:16.698Z,99900.56
2023-03-21T12:08:08.900Z,99903.12
2023-03-21T12:10:46.678Z,99901.09
2023-03-21T12:13:45.807Z,99904.25
2023-03-21T12:16:21.844Z,99905.86
2023-03-21T12:19:21.607Z,99899.88
2023-03-21T12:21:55.165Z,99895.40
2023-03-21T12:24:45.457Z,99890.03
2023-03-21T12:27:22.997Z,99888.46
2023-03-21T12:30:29.052Z,99885.76
2023-03-21T12:33:41.092Z,99884.83
2023-03-21T12:36:23.703Z,99878.51
2023-03-21T12:39:05.144Z,99877.73
2023-03-21T12:42:04.398Z,99874.79
2023-03-21T12:44:36.050Z,99876.35
2023-03-21T12:47:10.720Z,99874.27
2023-03-21T12:49:48.674Z,99875.83
2023-03-21T12:52:26.806Z,99871.62
2023-03-21T12:55:10.615Z,99864.91
2023-03-21T12:57:47.777Z,99872.36
2023-03-21T13:00:53.542Z,99872.63
2023-03-21T13:03:27.680Z,99870.90
2023-03-21T13:06:08.637Z,99868.98
2023-03-21T13:09:03.384Z,99865.81
2023-03-21T13:11:31.021Z,99865.87
2023-03-21T13:14:25.825Z,99862.65
2023-03-21T13:17:50.041Z,99859.66
2023-03-21T13:20:36.200Z,99859.38
2023-03-21T13:23:07.727Z,99854.88
2023-03-21T13:25:49.235Z,99859.00
2023-03-21T13:28:28.817Z,99857.06
2023-03-21T13:31:19.575Z,99855.16
2023-03-21T13:33:50.598Z,99856.23
2023-03-21T13:36:25.923Z,99854.50
2023-03-21T13:39:01.803Z,99855.78
2023-03-21T13:41:39.020Z,99851.48
2023-03-21T13:44:41.250Z,99856.14
2023-03-21T13:47:35.396Z,99858.20
2023-03-21T13:50:17.075Z,99855.70
2023-03-21T13:53:12.474Z,99846.27
2023-03-21T13:55:46.205Z,99854.80
2023-03-21T13:58:34.898Z,99848.75
2023-03-21T14:01:25.910Z,99852.40
2023-03-21T14:04:06.673Z,99850.23
2023-03-21T14:06:42.452Z,99846.02
2023-03-21T14:09:38.070Z,99848.72
2023-03-21T14:12:08.225Z,99851.89
2023-03-21T14:14:41.353Z,99853.06
2023-03-21T14:17:24.910Z,99854.96
2023-03-21T14:20:11.761Z,99856.61
2023-03-21T14:22:42.799Z,99856.75
2023-03-21T14:25:13.840Z,99853.52
2023-03-21T14:27:44.290Z,99854.79
2023-03-21T14:30:11.978Z,99851.52
2023-03-21T14:32:42.571Z,99850.23
2023-03-21T14:35:10.229Z,99848.33
2023-03-21T14:37:43.609Z,99853.64
2023-03-21T14:40:25.093Z,99854.77
2023-03-21T14:42:52.875Z,99852.81
2023-03-21T14:45:27.555Z,99851.31
2023-03-21T14:48:01.122Z,99851.02
2023-03-21T14:50:33.259Z,99854.35
2023-03-21T14:53:00.500Z,99852.63
2023-03-21T14:55:27.719Z,99852.23
2023-03-21T14:57:59.258Z,99858.02
2023-03-21T15:00:28.020Z,99852.14
2023-03-21T15:02:55.324Z,99854.69
2023-03-21T15:05:38.252Z,99853.76
2023-03-21T15:08:08.431Z,99855.17
2023-03-21T15:10:35.747Z,99851.95
2023-03-21T15:13:20.582Z,99854.67
2023-03-21T15:15:54.290Z,99855.14
2023-03-21T15:18:35.347Z,99856.80
2023-03-21T15:21:21.511Z,99860.19
2023-03-21T15:24:15.299Z,99860.66
2023-03-21T15:26:47.342Z,99860.55
2023-03-21T15:29:17.769Z,99860.13
2023-03-21T15:31:46.544Z,99860.34
2023-03-21T15:34:28.008Z,99854.98
2023-03-21T15:37:25.723Z,99855.39
2023-03-21T15:39:55.205Z,99858.45
2023-03-21T15:42:29.297Z,99856.53
2023-03-21T15:45:02.078Z,99857.44
2023-03-21T15:47:41.929Z,99857.73
2023-03-21T15:50:32.553Z,99856.61
2023-03-21T15:53:02.016Z,99858.02
2023-03-21T15:55:35.636Z,99861.24
2023-03-21T15:58:12.627Z,99863.02
2023-03-21T16:00:43.486Z,99862.23
2023-03-21T16:03:31.842Z,99863.04
2023-03-21T16:06:14.898Z,99864.52
2023-03-21T16:08:45.831Z,99862.66
2023-03-21T16:11:20.411Z,99863.35
2023-03-21T16:13:47.725Z,99863.98
2023-03-21T16:16:26.298Z,99865.27
2023-03-21T16:19:01.160Z,99865.86
2023-03-21T16:21:30.096Z,99869.80
2023-03-21T16:23:58.762Z,99872.90
2023-03-21T16:26:31.510Z,99875.37
2023-03-21T16:29:00.048Z,99873.15
2023-03-21T16:31:32.429Z,99876.90
2023-03-21T16:34:04.925Z,99879.72
2023-03-21T16:36:36.214Z,99883.08
2023-03-21T16:39:20.010Z,99872.28
2023-03-21T16:41:51.782Z,99886.43
2023-03-21T16:44:21.643Z,99887.84
2023-03-21T16:46:50.102Z,99882.40
2023-03-21T16:49:26.205Z,99892.92
2023-03-21T16:52:01.616Z,99894.65
2023-03-21T16:54:31.363Z,99897.55
2023-03-21T16:57:02.665Z,99897.77
2023-03-21T16:59:40.897Z,99896.01
2023-03-21T17:02:37.056Z,99899.99
2023-03-21T17:05:09.565Z,99901.56
2023-03-21T17:07:38.466Z,99907.02
2023-03-21T17:10:25.020Z,99910.33
2023-03-21T17:12:56.342Z,99911.40
2023-03-21T17:15:28.561Z,99914.61
2023-03-21T17:17:57.534Z,99912.99
2023-03-21T17:20:54.734Z,99912.32
2023-03-21T17:23:22.596Z,99914.94
2023-03-21T17:25:55.749Z,99909.66
2023-03-21T17:28:24.637Z,99918.58
2023-03-21T17:30:54.635Z,99917.38
2023-03-21T17:33:23.829Z,99918.99
2023-03-21T17:35:52.316Z,99918.58
2023-03-21T17:38:23.850Z,99913.34
2023-03-21T17:40:52.752Z,99914.00
2023-03-21T17:43:24.557Z,99915.57
2023-03-21T17:45:52.404Z,99914.34
2023-03-21T17:48:21.405Z,99917.98
2023-03-21T17:50:49.174Z,99914.50
2023-03-21T17:53:19.384Z,99918.27
2023-03-21T17:55:52.157Z,99920.81
2023-03-21T17:58:21.763Z,99922.52
2023-03-21T18:00:49.266Z,99923.16
2023-03-21T18:03:22.328Z,99921.36
2023-03-21T18:05:50.832Z,99921.28
2023-03-21T18:08:20.569Z,99922.20
2023-03-21T18:10:53.450Z,99919.10
2023-03-21T18:13:24.137Z,99923.02
2023-03-21T18:15:59.794Z,99923.73
2023-03-21T18:18:39.590Z,99922.28
2023-03-21T18:21:10.357Z,99920.27
2023-03-21T18:23:41.142Z,99925.09
2023-03-21T18:26:09.831Z,99922.95
2023-03-21T18:29:00.297Z,99923.61
2023-03-21T18:31:39.883Z,99925.27
2023-03-21T18:34:09.353Z,99923.16
2023-03-21T18:36:43.586Z,99924.70
2023-03-21T18:39:13.112Z,99926.79
2023-03-21T18:41:43.071Z,99917.75
2023-03-21T18:44:16.688Z,99925.90
2023-03-21T18:46:50.831Z,99928.52
2023-03-21T18:50:05.497Z,99931.56
2023-03-21T18:52:14.382Z,99931.46
2023-03-21T18:54:43.843Z,99934.88
2023-03-21T19:00:12.151Z,99936.95
2023-03-21T19:02:45.562Z,99934.81
2023-03-21T19:05:17.054Z,99940.98
2023-03-21T19:07:46.068Z,99941.61
2023-03-21T19:10:20.182Z,99944.23
2023-03-21T19:12:54.410Z,99950.50
2023-03-21T19:15:23.658Z,99945.60
2023-03-21T19:20:50.196Z,99954.70
2023-03-21T19:23:21.165Z,99957.77
2023-03-21T19:26:37.025Z,99961.88
2023-03-21T19:29:08.083Z,99956.84
2023-03-21T19:31:37.404Z,99958.38
2023-03-21T19:34:07.763Z,99961.64
2023-03-21T19:36:37.275Z,99958.90
2023-03-21T19:39:11.665Z,99957.09
2023-03-21T19:41:40.738Z,99955.86
2023-03-21T19:44:10.177Z,99956.51
2023-03-21T19:46:37.591Z,99955.98
2023-03-21T19:49:07.035Z,99956.04
2023-03-21T19:51:43.624Z,99953.77
2023-03-21T19:54:10.885Z,99952.83
2023-03-21T19:56:47.102Z,99950.08
2023-03-21T19:59:17.056Z,99954.65
2023-03-21T20:01:56.972Z,99950.01
2023-03-21T20:04:36.547Z,99949.47
2023-03-21T20:07:24.669Z,99949.98
2023-03-21T20:10:00.760Z,99948.27
2023-03-21T20:12:37.858Z,99952.79
2023-03-21T20:15:26.667Z,99955.86
2023-03-21T20:18:23.409Z,99952.88
2023-03-21T20:20:58.216Z,99954.64
2023-03-21T20:23:29.862Z,99955.34
2023-03-21T20:26:00.578Z,99954.14
2023-03-21T20:28:28.964Z,99953.24
2023-03-21T20:31:10.437Z,99958.10
2023-03-21T20:33:41.250Z,99954.88
2023-03-21T20:36:38.807Z,99953.80
2023-03-21T20:39:01.112Z,99955.53
2023-03-21T20:41:33.285Z,99958.45
2023-03-21T20:46:53.567Z,99958.23
2023-03-21T20:49:33.717Z,99956.27
2023-03-21T20:54:54.102Z,99958.95
2023-03-21T20:57:26.631Z,99960.83
2023-03-21T20:59:59.159Z,99962.23
2023-03-21T21:02:28.171Z,99959.80
2023-03-21T21:05:24.567Z,99953.09
2023-03-21T21:07:51.162Z,99954.89
2023-03-21T21:10:22.375Z,99956.70
2023-03-21T21:12:50.672Z,99956.48
2023-03-21T21:15:19.689Z,99955.18
2023-03-21T21:18:11.275Z,99953.06
2023-03-21T21:20:42.552Z,99956.99
2023-03-21T21:23:10.216Z,99957.68
2023-03-21T21:25:41.955Z,99959.57
2023-03-21T21:28:11.838Z,99962.57
2023-03-21T21:30:47.357Z,99962.21
2023-03-21T21:33:17.513Z,99961.77
2023-03-21T21:35:47.641Z,99961.15
2023-03-21T21:38:17.169Z,99964.27
2023-03-21T21:41:08.027Z,99960.11
2023-03-21T21:43:35.153Z,99959.59
2023-03-21T21:46:03.313Z,99956.29
2023-03-21T21:48:34.224Z,99957.89
2023-03-21T21:51:03.351Z,99957.74
2023-03-21T21:53:33.913Z,99957.34
2023-03-21T21:56:03.192Z,99953.83
2023-03-21T21:58:38.263Z,99959.61
2023-03-21T22:01:08.928Z,99958.76
2023-03-21T22:03:41.125Z,99958.59
2023-03-21T22:06:10.334Z,99959.73
2023-03-21T22:08:50.136Z,99959.64
2023-03-21T22:11:22.175Z,99961.21
2023-03-21T22:15:19.782Z,99960.30
2023-03-21T22:17:51.020Z,99962.34
2023-03-21T22:20:19.865Z,99957.08
2023-03-21T22:22:50.650Z,99962.36
2023-03-21T22:25:20.363Z,99962.61
2023-03-21T22:27:52.574Z,99972.62
2023-03-21T22:30:20.631Z,99970.54
2023-03-21T22:33:08.907Z,99971.63
2023-03-21T22:35:47.525Z,99975.30
2023-03-21T22:38:25.030Z,99977.98
2023-03-21T22:41:00.936Z,99979.23
2023-03-21T22:43:33.989Z,99977.27
2023-03-21T22:46:03.363Z,99982.61
2023-03-21T22:48:35.984Z,99983.70
2023-03-21T22:51:05.881Z,99983.95
2023-03-21T22:53:41.757Z,99977.99
2023-03-21T22:56:13.359Z,99987.64
2023-03-21T22:58:45.864Z,99983.33
2023-03-21T23:01:21.944Z,99983.96
2023-03-21T23:03:51.896Z,99983.86
2023-03-21T23:06:21.737Z,99981.42
2023-03-21T23:08:50.028Z,99982.87
2023-03-21T23:11:19.401Z,99988.06
2023-03-21T23:13:51.588Z,99986.34
2023-03-21T23:16:30.849Z,99987.71
2023-03-21T23:18:58.622Z,99993.96
2023-03-21T23:21:26.632Z,100006.56
2023-03-21T23:23:56.228Z,100007.30
2023-03-21T23:26:29.076Z,100006.73
2023-03-21T23:29:01.510Z,100004.63
2023-03-21T23:31:33.584Z,100009.45
2023-03-21T23:34:00.725Z,100005.45
2023-03-21T23:36:29.256Z,100004.14
2023-03-21T23:39:03.912Z,99999.95
2023-03-21T23:41:32.200Z,99998.50
2023-03-21T23:44:01.959Z,99991.80
2023-03-21T23:46:34.042Z,99993.67
2023-03-21T23:49:04.178Z,99992.14
2023-03-21T23:51:35.630Z,99990.85
2023-03-21T23:54:04.958Z,99988.21
2023-03-21T23:56:41.367Z,99987.39
2023-03-21T23:59:20.163Z,99990.96
